sensor_id;sensor_type;location;lat;lon;timestamp;temperature;humidity
37356;DHT22;48747;50.250;18.848;2023-02-18T00:01:41;8.50;99.90
37356;DHT22;48747;50.250;18.848;2023-02-18T00:03:49;8.50;99.90
37356;DHT22;48747;50.250;18.848;2023-02-18T00:06:00;8.50;99.90
37356;DHT22;48747;50.250;18.848;2023-02-18T00:07:58;8.50;99.90
37356;DHT22;48747;50.250;18.848;2023-02-18T00:10:09;8.60;99.90
37356;DHT22;48747;50.250;18.848;2023-02-18T00:12:12;8.60;99.90
37356;DHT22;48747;50.250;18.848;2023-02-18T00:14:47;8.60;99.90
37356;DHT22;48747;50.250;18.848;2023-02-18T00:18:40;8.60;99.90
37356;DHT22;48747;50.250;18.848;2023-02-18T00:20:45;8.70;99.90
37356;DHT22;48747;50.250;18.848;2023-02-18T00:22:53;8.70;99.90
37356;DHT22;48747;50.250;18.848;2023-02-18T00:24:58;8.70;99.90
37356;DHT22;48747;50.250;18.848;2023-02-18T00:27:15;8.70;99.90
37356;DHT22;48747;50.250;18.848;2023-02-18T00:29:15;8.80;99.90
37356;DHT22;48747;50.250;18.848;2023-02-18T00:33:30;8.80;99.90
37356;DHT22;48747;50.250;18.848;2023-02-18T00:35:59;8.90;99.90
37356;DHT22;48747;50.250;18.848;2023-02-18T00:37:48;9.10;99.90
37356;DHT22;48747;50.250;18.848;2023-02-18T00:42:03;9.20;99.90
37356;DHT22;48747;50.250;18.848;2023-02-18T00:46:28;9.20;99.90
37356;DHT22;48747;50.250;18.848;2023-02-18T00:48:39;9.10;99.90
37356;DHT22;48747;50.250;18.848;2023-02-18T00:50:48;8.90;99.90
37356;DHT22;48747;50.250;18.848;2023-02-18T00:55:10;8.80;99.90
37356;DHT22;48747;50.250;18.848;2023-02-18T00:57:01;8.80;99.90
37356;DHT22;48747;50.250;18.848;2023-02-18T00:59:15;8.80;99.90
37356;DHT22;48747;50.250;18.848;2023-02-18T01:01:16;8.70;99.90
37356;DHT22;48747;50.250;18.848;2023-02-18T01:03:23;8.70;99.90
37356;DHT22;48747;50.250;18.848;2023-02-18T01:05:33;8.70;99.90
37356;DHT22;48747;50.250;18.848;2023-02-18T01:07:55;8.60;99.90
37356;DHT22;48747;50.250;18.848;2023-02-18T01:09:49;8.50;99.90
37356;DHT22;48747;50.250;18.848;2023-02-18T01:11:53;8.50;99.90
37356;DHT22;48747;50.250;18.848;2023-02-18T01:14:04;8.50;99.90
37356;DHT22;48747;50.250;18.848;2023-02-18T01:16:15;8.50;99.90
37356;DHT22;48747;50.250;18.848;2023-02-18T01:20:27;8.50;99.90
37356;DHT22;48747;50.250;18.848;2023-02-18T01:22:38;8.60;99.90
37356;DHT22;48747;50.250;18.848;2023-02-18T01:24:46;8.60;99.90
37356;DHT22;48747;50.250;18.848;2023-02-18T01:26:55;8.50;99.90
37356;DHT22;48747;50.250;18.848;2023-02-18T01:29:06;8.60;99.90
37356;DHT22;48747;50.250;18.848;2023-02-18T01:31:17;8.50;99.90
37356;DHT22;48747;50.250;18.848;2023-02-18T01:33:27;8.60;99.90
37356;DHT22;48747;50.250;18.848;2023-02-18T01:37:28;8.50;99.90
37356;DHT22;48747;50.250;18.848;2023-02-18T01:39:40;8.50;99.90
37356;DHT22;48747;50.250;18.848;2023-02-18T01:41:57;8.50;99.90
37356;DHT22;48747;50.250;18.848;2023-02-18T01:44:19;8.50;99.90
37356;DHT22;48747;50.250;18.848;2023-02-18T01:46:31;8.40;99.90
37356;DHT22;48747;50.250;18.848;2023-02-18T01:51:24;8.40;99.90
37356;DHT22;48747;50.250;18.848;2023-02-18T01:53:30;8.40;99.90
37356;DHT22;48747;50.250;18.848;2023-02-18T01:55:41;8.50;99.90
37356;DHT22;48747;50.250;18.848;2023-02-18T01:57:40;8.60;99.90
37356;DHT22;48747;50.250;18.848;2023-02-18T01:59:51;8.50;99.90
37356;DHT22;48747;50.250;18.848;2023-02-18T02:01:59;8.60;99.90
37356;DHT22;48747;50.250;18.848;2023-02-18T02:04:08;8.50;99.90
37356;DHT22;48747;50.250;18.848;2023-02-18T02:06:16;8.40;99.90
37356;DHT22;48747;50.250;18.848;2023-02-18T02:08:28;8.40;99.90
37356;DHT22;48747;50.250;18.848;2023-02-18T02:15:05;8.30;99.90
37356;DHT22;48747;50.250;18.848;2023-02-18T02:27:11;8.10;99.90
37356;DHT22;48747;50.250;18.848;2023-02-18T02:29:43;8.00;99.90
37356;DHT22;48747;50.250;18.848;2023-02-18T02:43:17;7.50;99.90
37356;DHT22;48747;50.250;18.848;2023-02-18T02:54:29;7.20;99.90
37356;DHT22;48747;50.250;18.848;2023-02-18T02:56:35;7.20;99.90
37356;DHT22;48747;50.250;18.848;2023-02-18T02:58:44;7.30;99.90
37356;DHT22;48747;50.250;18.848;2023-02-18T03:03:47;7.40;99.90
37356;DHT22;48747;50.250;18.848;2023-02-18T03:15:27;7.30;99.90
37356;DHT22;48747;50.250;18.848;2023-02-18T03:20:15;7.30;99.90
37356;DHT22;48747;50.250;18.848;2023-02-18T03:22:33;7.30;99.90
37356;DHT22;48747;50.250;18.848;2023-02-18T03:24:45;7.20;99.90
37356;DHT22;48747;50.250;18.848;2023-02-18T03:26:56;7.10;99.90
37356;DHT22;48747;50.250;18.848;2023-02-18T03:31:15;7.10;99.90
37356;DHT22;48747;50.250;18.848;2023-02-18T03:33:26;7.00;99.90
37356;DHT22;48747;50.250;18.848;2023-02-18T03:37:49;7.00;99.90
37356;DHT22;48747;50.250;18.848;2023-02-18T03:39:51;7.00;99.90
37356;DHT22;48747;50.250;18.848;2023-02-18T03:41:53;7.00;99.90
37356;DHT22;48747;50.250;18.848;2023-02-18T03:44:01;7.00;99.90
37356;DHT22;48747;50.250;18.848;2023-02-18T03:46:16;7.00;99.90
37356;DHT22;48747;50.250;18.848;2023-02-18T03:50:17;7.00;99.90
37356;DHT22;48747;50.250;18.848;2023-02-18T03:52:29;7.00;99.90
37356;DHT22;48747;50.250;18.848;2023-02-18T03:54:31;7.00;99.90
37356;DHT22;48747;50.250;18.848;2023-02-18T03:56:41;7.00;99.90
37356;DHT22;48747;50.250;18.848;2023-02-18T03:58:45;7.10;99.90
37356;DHT22;48747;50.250;18.848;2023-02-18T04:00:55;7.20;99.90
37356;DHT22;48747;50.250;18.848;2023-02-18T04:02:57;7.20;99.90
37356;DHT22;48747;50.250;18.848;2023-02-18T04:07:19;7.20;99.90
37356;DHT22;48747;50.250;18.848;2023-02-18T04:09:30;7.10;99.90
37356;DHT22;48747;50.250;18.848;2023-02-18T04:11:31;7.10;99.90
37356;DHT22;48747;50.250;18.848;2023-02-18T04:13:41;7.10;99.90
37356;DHT22;48747;50.250;18.848;2023-02-18T04:15:44;7.10;99.90
37356;DHT22;48747;50.250;18.848;2023-02-18T04:17:48;7.10;99.90
37356;DHT22;48747;50.250;18.848;2023-02-18T04:19:55;7.10;99.80
37356;DHT22;48747;50.250;18.848;2023-02-18T04:21:58;7.10;97.00
37356;DHT22;48747;50.250;18.848;2023-02-18T04:24:16;7.10;97.30
37356;DHT22;48747;50.250;18.848;2023-02-18T04:26:16;7.10;93.80
37356;DHT22;48747;50.250;18.848;2023-02-18T04:32:35;6.90;95.20
37356;DHT22;48747;50.250;18.848;2023-02-18T04:34:38;6.90;94.20
37356;DHT22;48747;50.250;18.848;2023-02-18T04:36:48;6.80;96.00
37356;DHT22;48747;50.250;18.848;2023-02-18T04:39:00;6.70;98.10
37356;DHT22;48747;50.250;18.848;2023-02-18T04:41:02;6.60;99.50
37356;DHT22;48747;50.250;18.848;2023-02-18T04:45:19;6.40;99.90
37356;DHT22;48747;50.250;18.848;2023-02-18T04:51:49;6.30;99.90
37356;DHT22;48747;50.250;18.848;2023-02-18T04:53:51;6.30;99.90
37356;DHT22;48747;50.250;18.848;2023-02-18T04:56:01;6.30;99.90
37356;DHT22;48747;50.250;18.848;2023-02-18T04:58:09;6.40;99.90
37356;DHT22;48747;50.250;18.848;2023-02-18T05:02:27;6.50;91.40
37356;DHT22;48747;50.250;18.848;2023-02-18T05:04:37;6.60;90.90
37356;DHT22;48747;50.250;18.848;2023-02-18T05:06:38;6.70;91.00
37356;DHT22;48747;50.250;18.848;2023-02-18T05:08:50;6.70;90.20
37356;DHT22;48747;50.250;18.848;2023-02-18T05:10:56;6.60;90.50
37356;DHT22;48747;50.250;18.848;2023-02-18T05:13:01;6.60;90.50
37356;DHT22;48747;50.250;18.848;2023-02-18T05:17:33;6.50;90.90
37356;DHT22;48747;50.250;18.848;2023-02-18T05:19:29;6.50;91.90
37356;DHT22;48747;50.250;18.848;2023-02-18T05:21:38;6.40;92.60
37356;DHT22;48747;50.250;18.848;2023-02-18T05:23:44;6.30;92.50
37356;DHT22;48747;50.250;18.848;2023-02-18T05:25:53;6.30;94.30
37356;DHT22;48747;50.250;18.848;2023-02-18T05:27:57;6.30;94.50
37356;DHT22;48747;50.250;18.848;2023-02-18T05:30:02;6.30;93.50
37356;DHT22;48747;50.250;18.848;2023-02-18T05:32:12;6.40;91.50
37356;DHT22;48747;50.250;18.848;2023-02-18T05:34:16;6.40;90.60
37356;DHT22;48747;50.250;18.848;2023-02-18T05:36:27;6.40;90.70
37356;DHT22;48747;50.250;18.848;2023-02-18T05:38:31;6.40;90.40
37356;DHT22;48747;50.250;18.848;2023-02-18T05:40:36;6.40;90.60
37356;DHT22;48747;50.250;18.848;2023-02-18T05:42:39;6.40;91.70
37356;DHT22;48747;50.250;18.848;2023-02-18T05:44:44;6.30;91.60
37356;DHT22;48747;50.250;18.848;2023-02-18T05:46:47;6.30;90.50
37356;DHT22;48747;50.250;18.848;2023-02-18T05:48:50;6.30;90.80
37356;DHT22;48747;50.250;18.848;2023-02-18T05:51:00;6.30;90.60
37356;DHT22;48747;50.250;18.848;2023-02-18T05:52:59;6.30;90.40
37356;DHT22;48747;50.250;18.848;2023-02-18T05:55:03;6.40;89.00
37356;DHT22;48747;50.250;18.848;2023-02-18T05:57:06;6.50;89.10
37356;DHT22;48747;50.250;18.848;2023-02-18T05:59:12;6.50;88.00
37356;DHT22;48747;50.250;18.848;2023-02-18T06:01:15;6.60;85.00
37356;DHT22;48747;50.250;18.848;2023-02-18T06:03:20;6.70;85.10
37356;DHT22;48747;50.250;18.848;2023-02-18T06:05:23;6.70;85.60
37356;DHT22;48747;50.250;18.848;2023-02-18T06:07:26;6.70;85.20
37356;DHT22;48747;50.250;18.848;2023-02-18T06:09:29;6.70;85.00
37356;DHT22;48747;50.250;18.848;2023-02-18T06:11:34;6.80;85.70
37356;DHT22;48747;50.250;18.848;2023-02-18T06:13:37;6.80;82.60
37356;DHT22;48747;50.250;18.848;2023-02-18T06:15:40;6.90;83.60
37356;DHT22;48747;50.250;18.848;2023-02-18T06:17:43;7.00;79.30
37356;DHT22;48747;50.250;18.848;2023-02-18T06:19:47;7.00;79.50
37356;DHT22;48747;50.250;18.848;2023-02-18T06:21:52;7.10;79.20
37356;DHT22;48747;50.250;18.848;2023-02-18T06:23:57;7.10;75.90
37356;DHT22;48747;50.250;18.848;2023-02-18T06:26:00;7.20;77.80
37356;DHT22;48747;50.250;18.848;2023-02-18T06:28:04;7.20;77.60
37356;DHT22;48747;50.250;18.848;2023-02-18T06:30:07;7.20;76.90
37356;DHT22;48747;50.250;18.848;2023-02-18T06:32:14;7.20;77.50
37356;DHT22;48747;50.250;18.848;2023-02-18T06:34:15;7.20;77.60
37356;DHT22;48747;50.250;18.848;2023-02-18T06:36:24;7.20;77.80
37356;DHT22;48747;50.250;18.848;2023-02-18T06:38:23;7.30;76.40
37356;DHT22;48747;50.250;18.848;2023-02-18T06:40:40;7.30;77.00
37356;DHT22;48747;50.250;18.848;2023-02-18T06:42:47;7.40;76.50
37356;DHT22;48747;50.250;18.848;2023-02-18T06:45:05;7.40;78.00
37356;DHT22;48747;50.250;18.848;2023-02-18T06:47:02;7.40;78.30
37356;DHT22;48747;50.250;18.848;2023-02-18T06:49:13;7.40;76.90
37356;DHT22;48747;50.250;18.848;2023-02-18T06:51:19;7.50;76.80
37356;DHT22;48747;50.250;18.848;2023-02-18T06:53:25;7.60;76.80
37356;DHT22;48747;50.250;18.848;2023-02-18T06:55:36;7.60;75.90
37356;DHT22;48747;50.250;18.848;2023-02-18T06:57:52;7.60;75.80
37356;DHT22;48747;50.250;18.848;2023-02-18T06:59:52;7.70;77.30
37356;DHT22;48747;50.250;18.848;2023-02-18T07:02:04;7.70;75.90
37356;DHT22;48747;50.250;18.848;2023-02-18T07:04:14;7.70;77.40
37356;DHT22;48747;50.250;18.848;2023-02-18T07:06:21;7.70;76.00
37356;DHT22;48747;50.250;18.848;2023-02-18T07:08:25;7.70;74.40
37356;DHT22;48747;50.250;18.848;2023-02-18T07:10:31;7.80;75.10
37356;DHT22;48747;50.250;18.848;2023-02-18T07:12:38;7.70;74.80
37356;DHT22;48747;50.250;18.848;2023-02-18T07:14:43;7.70;74.60
37356;DHT22;48747;50.250;18.848;2023-02-18T07:16:50;7.70;74.50
37356;DHT22;48747;50.250;18.848;2023-02-18T07:19:05;7.70;73.90
37356;DHT22;48747;50.250;18.848;2023-02-18T07:21:07;7.80;72.20
37356;DHT22;48747;50.250;18.848;2023-02-18T07:23:14;7.80;73.50
37356;DHT22;48747;50.250;18.848;2023-02-18T07:25:20;7.90;73.00
37356;DHT22;48747;50.250;18.848;2023-02-18T07:29:34;7.80;75.40
37356;DHT22;48747;50.250;18.848;2023-02-18T07:31:37;7.80;74.90
37356;DHT22;48747;50.250;18.848;2023-02-18T07:33:41;7.80;75.60
37356;DHT22;48747;50.250;18.848;2023-02-18T07:35:54;7.80;76.60
37356;DHT22;48747;50.250;18.848;2023-02-18T07:38:00;7.70;77.00
37356;DHT22;48747;50.250;18.848;2023-02-18T07:40:08;7.70;77.40
37356;DHT22;48747;50.250;18.848;2023-02-18T07:42:19;7.70;77.70
37356;DHT22;48747;50.250;18.848;2023-02-18T07:44:20;7.70;77.90
37356;DHT22;48747;50.250;18.848;2023-02-18T07:46:31;7.70;77.70
37356;DHT22;48747;50.250;18.848;2023-02-18T07:48:38;7.70;77.30
37356;DHT22;48747;50.250;18.848;2023-02-18T07:50:47;7.70;77.40
37356;DHT22;48747;50.250;18.848;2023-02-18T07:53:07;7.80;77.30
37356;DHT22;48747;50.250;18.848;2023-02-18T07:57:03;7.80;75.80
37356;DHT22;48747;50.250;18.848;2023-02-18T07:59:15;7.90;76.40
37356;DHT22;48747;50.250;18.848;2023-02-18T08:03:31;7.80;77.00
37356;DHT22;48747;50.250;18.848;2023-02-18T08:07:42;7.80;76.00
37356;DHT22;48747;50.250;18.848;2023-02-18T08:09:59;7.90;76.20
37356;DHT22;48747;50.250;18.848;2023-02-18T08:11:52;7.90;76.60
37356;DHT22;48747;50.250;18.848;2023-02-18T08:16:24;7.90;77.00
37356;DHT22;48747;50.250;18.848;2023-02-18T08:18:27;7.90;77.30
37356;DHT22;48747;50.250;18.848;2023-02-18T08:22:45;7.90;75.80
37356;DHT22;48747;50.250;18.848;2023-02-18T08:27:02;7.90;76.90
37356;DHT22;48747;50.250;18.848;2023-02-18T08:29:07;7.90;77.50
37356;DHT22;48747;50.250;18.848;2023-02-18T08:31:26;7.90;78.80
37356;DHT22;48747;50.250;18.848;2023-02-18T08:33:27;7.90;80.00
37356;DHT22;48747;50.250;18.848;2023-02-18T08:35:36;7.90;80.50
37356;DHT22;48747;50.250;18.848;2023-02-18T08:37:51;7.90;81.30
37356;DHT22;48747;50.250;18.848;2023-02-18T08:39:46;7.90;83.40
37356;DHT22;48747;50.250;18.848;2023-02-18T08:41:49;7.90;82.70
37356;DHT22;48747;50.250;18.848;2023-02-18T08:43:55;7.90;83.10
37356;DHT22;48747;50.250;18.848;2023-02-18T08:45:58;7.90;84.00
37356;DHT22;48747;50.250;18.848;2023-02-18T08:48:01;7.90;85.10
37356;DHT22;48747;50.250;18.848;2023-02-18T08:50:05;7.90;85.40
37356;DHT22;48747;50.250;18.848;2023-02-18T08:52:08;8.00;84.70
37356;DHT22;48747;50.250;18.848;2023-02-18T08:54:11;8.00;85.60
37356;DHT22;48747;50.250;18.848;2023-02-18T08:56:15;8.10;85.20
37356;DHT22;48747;50.250;18.848;2023-02-18T08:58:19;8.10;84.70
37356;DHT22;48747;50.250;18.848;2023-02-18T09:00:22;8.20;85.00
37356;DHT22;48747;50.250;18.848;2023-02-18T09:02:27;8.20;85.80
37356;DHT22;48747;50.250;18.848;2023-02-18T09:04:30;8.20;85.90
37356;DHT22;48747;50.250;18.848;2023-02-18T09:06:38;8.30;86.50
37356;DHT22;48747;50.250;18.848;2023-02-18T09:08:41;8.30;85.70
37356;DHT22;48747;50.250;18.848;2023-02-18T09:10:44;8.30;87.20
37356;DHT22;48747;50.250;18.848;2023-02-18T09:12:47;8.30;88.50
37356;DHT22;48747;50.250;18.848;2023-02-18T09:14:50;8.30;89.10
37356;DHT22;48747;50.250;18.848;2023-02-18T09:16:55;8.20;89.70
37356;DHT22;48747;50.250;18.848;2023-02-18T09:18:59;8.20;90.40
37356;DHT22;48747;50.250;18.848;2023-02-18T09:21:04;8.20;89.90
37356;DHT22;48747;50.250;18.848;2023-02-18T09:23:07;8.20;90.40
37356;DHT22;48747;50.250;18.848;2023-02-18T09:25:11;8.20;90.00
37356;DHT22;48747;50.250;18.848;2023-02-18T09:27:14;8.20;90.60
37356;DHT22;48747;50.250;18.848;2023-02-18T09:29:17;8.20;90.80
37356;DHT22;48747;50.250;18.848;2023-02-18T09:31:22;8.30;90.50
37356;DHT22;48747;50.250;18.848;2023-02-18T09:33:26;8.30;90.80
37356;DHT22;48747;50.250;18.848;2023-02-18T09:35:29;8.30;90.90
37356;DHT22;48747;50.250;18.848;2023-02-18T09:37:32;8.40;90.80
37356;DHT22;48747;50.250;18.848;2023-02-18T09:39:36;8.50;90.40
37356;DHT22;48747;50.250;18.848;2023-02-18T09:41:47;8.50;90.20
37356;DHT22;48747;50.250;18.848;2023-02-18T09:43:58;8.60;90.40
37356;DHT22;48747;50.250;18.848;2023-02-18T09:45:59;8.60;90.20
37356;DHT22;48747;50.250;18.848;2023-02-18T09:48:03;8.70;90.60
37356;DHT22;48747;50.250;18.848;2023-02-18T09:50:25;8.70;88.60
37356;DHT22;48747;50.250;18.848;2023-02-18T09:52:31;8.70;86.30
37356;DHT22;48747;50.250;18.848;2023-02-18T09:54:34;8.70;88.10
37356;DHT22;48747;50.250;18.848;2023-02-18T09:56:40;8.70;89.70
37356;DHT22;48747;50.250;18.848;2023-02-18T09:58:51;8.70;88.20
37356;DHT22;48747;50.250;18.848;2023-02-18T10:01:11;8.70;88.40
37356;DHT22;48747;50.250;18.848;2023-02-18T10:03:21;8.60;87.90
37356;DHT22;48747;50.250;18.848;2023-02-18T10:05:20;8.70;88.60
37356;DHT22;48747;50.250;18.848;2023-02-18T10:07:29;8.60;90.50
37356;DHT22;48747;50.250;18.848;2023-02-18T10:09:36;8.60;91.80
37356;DHT22;48747;50.250;18.848;2023-02-18T10:11:47;8.60;91.50
37356;DHT22;48747;50.250;18.848;2023-02-18T10:13:51;8.60;90.30
37356;DHT22;48747;50.250;18.848;2023-02-18T10:15:51;8.70;88.40
37356;DHT22;48747;50.250;18.848;2023-02-18T10:17:56;8.70;89.60
37356;DHT22;48747;50.250;18.848;2023-02-18T10:20:00;8.70;89.60
37356;DHT22;48747;50.250;18.848;2023-02-18T10:22:07;8.60;90.40
37356;DHT22;48747;50.250;18.848;2023-02-18T10:25:03;8.60;91.00
37356;DHT22;48747;50.250;18.848;2023-02-18T10:26:39;8.60;93.70
37356;DHT22;48747;50.250;18.848;2023-02-18T10:28:42;8.30;95.60
37356;DHT22;48747;50.250;18.848;2023-02-18T10:30:57;8.20;97.70
37356;DHT22;48747;50.250;18.848;2023-02-18T10:35:47;7.90;99.90
37356;DHT22;48747;50.250;18.848;2023-02-18T10:40:08;7.70;99.90
37356;DHT22;48747;50.250;18.848;2023-02-18T10:42:28;7.70;99.90
37356;DHT22;48747;50.250;18.848;2023-02-18T10:44:46;7.60;99.90
37356;DHT22;48747;50.250;18.848;2023-02-18T10:53:33;7.50;99.90
37356;DHT22;48747;50.250;18.848;2023-02-18T10:55:43;7.50;99.90
37356;DHT22;48747;50.250;18.848;2023-02-18T10:57:48;7.40;99.90
37356;DHT22;48747;50.250;18.848;2023-02-18T11:02:13;7.20;99.90
37356;DHT22;48747;50.250;18.848;2023-02-18T11:04:18;7.20;99.90
37356;DHT22;48747;50.250;18.848;2023-02-18T11:06:29;7.10;99.90
37356;DHT22;48747;50.250;18.848;2023-02-18T11:08:41;7.10;99.90
37356;DHT22;48747;50.250;18.848;2023-02-18T11:11:00;7.10;99.90
37356;DHT22;48747;50.250;18.848;2023-02-18T11:13:09;7.00;99.90
37356;DHT22;48747;50.250;18.848;2023-02-18T11:15:20;7.00;99.90
37356;DHT22;48747;50.250;18.848;2023-02-18T11:17:30;7.00;99.90
37356;DHT22;48747;50.250;18.848;2023-02-18T11:19:36;7.00;99.90
37356;DHT22;48747;50.250;18.848;2023-02-18T11:21:39;7.00;99.90
37356;DHT22;48747;50.250;18.848;2023-02-18T11:23:48;7.00;99.90
37356;DHT22;48747;50.250;18.848;2023-02-18T11:25:54;7.00;99.90
37356;DHT22;48747;50.250;18.848;2023-02-18T11:28:01;7.00;99.90
37356;DHT22;48747;50.250;18.848;2023-02-18T11:32:11;6.90;99.90
37356;DHT22;48747;50.250;18.848;2023-02-18T11:37:18;6.90;99.90
37356;DHT22;48747;50.250;18.848;2023-02-18T12:01:37;6.50;99.90
37356;DHT22;48747;50.250;18.848;2023-02-18T12:06:48;6.50;99.90
37356;DHT22;48747;50.250;18.848;2023-02-18T12:09:00;6.50;99.90
37356;DHT22;48747;50.250;18.848;2023-02-18T12:11:01;6.60;99.90
37356;DHT22;48747;50.250;18.848;2023-02-18T12:13:54;6.50;99.90
37356;DHT22;48747;50.250;18.848;2023-02-18T12:26:01;6.90;99.90
37356;DHT22;48747;50.250;18.848;2023-02-18T12:42:14;7.10;99.90
37356;DHT22;48747;50.250;18.848;2023-02-18T12:46:57;6.90;99.90
37356;DHT22;48747;50.250;18.848;2023-02-18T12:57:55;6.80;99.90
37356;DHT22;48747;50.250;18.848;2023-02-18T13:07:18;6.70;99.90
37356;DHT22;48747;50.250;18.848;2023-02-18T13:11:51;6.70;99.90
37356;DHT22;48747;50.250;18.848;2023-02-18T13:14:08;6.70;99.90
37356;DHT22;48747;50.250;18.848;2023-02-18T13:16:12;6.80;99.90
37356;DHT22;48747;50.250;18.848;2023-02-18T13:20:44;6.70;99.90
37356;DHT22;48747;50.250;18.848;2023-02-18T13:22:48;6.70;99.90
37356;DHT22;48747;50.250;18.848;2023-02-18T13:24:57;6.60;99.90
37356;DHT22;48747;50.250;18.848;2023-02-18T13:34:32;6.50;99.90
37356;DHT22;48747;50.250;18.848;2023-02-18T13:37:38;6.50;99.90
37356;DHT22;48747;50.250;18.848;2023-02-18T13:39:07;6.50;99.90
37356;DHT22;48747;50.250;18.848;2023-02-18T13:41:22;6.50;99.90
37356;DHT22;48747;50.250;18.848;2023-02-18T13:43:34;6.50;99.90
37356;DHT22;48747;50.250;18.848;2023-02-18T13:45:53;6.40;99.90
37356;DHT22;48747;50.250;18.848;2023-02-18T13:47:56;6.40;99.90
37356;DHT22;48747;50.250;18.848;2023-02-18T13:52:30;6.30;99.90
37356;DHT22;48747;50.250;18.848;2023-02-18T13:57:20;6.30;99.90
37356;DHT22;48747;50.250;18.848;2023-02-18T13:59:55;6.30;99.90
37356;DHT22;48747;50.250;18.848;2023-02-18T14:01:53;6.30;99.90
37356;DHT22;48747;50.250;18.848;2023-02-18T14:06:18;6.30;99.90
37356;DHT22;48747;50.250;18.848;2023-02-18T14:08:35;6.30;99.90
37356;DHT22;48747;50.250;18.848;2023-02-18T14:10:44;6.30;99.90
37356;DHT22;48747;50.250;18.848;2023-02-18T14:17:33;6.20;99.90
37356;DHT22;48747;50.250;18.848;2023-02-18T14:19:41;6.10;99.90
37356;DHT22;48747;50.250;18.848;2023-02-18T14:21:53;6.20;99.90
37356;DHT22;48747;50.250;18.848;2023-02-18T14:24:04;6.20;99.90
37356;DHT22;48747;50.250;18.848;2023-02-18T14:30:45;6.30;99.90
37356;DHT22;48747;50.250;18.848;2023-02-18T14:32:45;6.30;99.90
37356;DHT22;48747;50.250;18.848;2023-02-18T14:51:33;6.30;99.90
37356;DHT22;48747;50.250;18.848;2023-02-18T14:56:11;6.30;99.90
37356;DHT22;48747;50.250;18.848;2023-02-18T15:00:20;6.30;99.90
37356;DHT22;48747;50.250;18.848;2023-02-18T15:02:36;6.30;99.90
37356;DHT22;48747;50.250;18.848;2023-02-18T15:04:51;6.30;99.90
37356;DHT22;48747;50.250;18.848;2023-02-18T15:06:53;6.30;99.90
37356;DHT22;48747;50.250;18.848;2023-02-18T15:09:00;6.30;99.90
37356;DHT22;48747;50.250;18.848;2023-02-18T15:11:09;6.30;99.90
37356;DHT22;48747;50.250;18.848;2023-02-18T15:13:31;6.40;99.90
37356;DHT22;48747;50.250;18.848;2023-02-18T15:15:23;6.40;99.90
37356;DHT22;48747;50.250;18.848;2023-02-18T15:17:36;6.40;99.90
37356;DHT22;48747;50.250;18.848;2023-02-18T15:19:43;6.50;99.90
37356;DHT22;48747;50.250;18.848;2023-02-18T15:21:53;6.50;99.90
37356;DHT22;48747;50.250;18.848;2023-02-18T15:24:06;6.60;99.90
37356;DHT22;48747;50.250;18.848;2023-02-18T15:26:13;6.60;99.90
37356;DHT22;48747;50.250;18.848;2023-02-18T15:28:29;6.70;99.90
37356;DHT22;48747;50.250;18.848;2023-02-18T15:30:33;6.80;99.90
37356;DHT22;48747;50.250;18.848;2023-02-18T15:32:38;6.90;99.90
37356;DHT22;48747;50.250;18.848;2023-02-18T15:34:48;7.00;99.90
37356;DHT22;48747;50.250;18.848;2023-02-18T15:37:06;7.10;99.90
37356;DHT22;48747;50.250;18.848;2023-02-18T15:38:57;7.20;99.90
37356;DHT22;48747;50.250;18.848;2023-02-18T15:41:04;7.30;99.90
37356;DHT22;48747;50.250;18.848;2023-02-18T15:43:16;7.40;99.90
37356;DHT22;48747;50.250;18.848;2023-02-18T15:45:24;7.40;99.90
37356;DHT22;48747;50.250;18.848;2023-02-18T15:47:36;7.40;99.90
37356;DHT22;48747;50.250;18.848;2023-02-18T15:49:59;7.50;99.90
37356;DHT22;48747;50.250;18.848;2023-02-18T15:52:15;7.60;99.90
37356;DHT22;48747;50.250;18.848;2023-02-18T15:54:23;7.60;99.90
37356;DHT22;48747;50.250;18.848;2023-02-18T15:56:38;7.70;99.90
37356;DHT22;48747;50.250;18.848;2023-02-18T15:58:44;7.80;99.90
37356;DHT22;48747;50.250;18.848;2023-02-18T16:00:52;7.80;99.90
37356;DHT22;48747;50.250;18.848;2023-02-18T16:03:15;7.90;99.90
37356;DHT22;48747;50.250;18.848;2023-02-18T16:05:18;7.90;99.90
37356;DHT22;48747;50.250;18.848;2023-02-18T16:07:25;8.00;99.90
37356;DHT22;48747;50.250;18.848;2023-02-18T16:09:33;8.00;99.90
37356;DHT22;48747;50.250;18.848;2023-02-18T16:11:43;8.00;99.90
37356;DHT22;48747;50.250;18.848;2023-02-18T16:13:46;8.10;99.90
37356;DHT22;48747;50.250;18.848;2023-02-18T16:15:50;8.10;99.90
37356;DHT22;48747;50.250;18.848;2023-02-18T16:17:54;8.20;99.90
37356;DHT22;48747;50.250;18.848;2023-02-18T16:22:25;8.30;99.90
37356;DHT22;48747;50.250;18.848;2023-02-18T16:24:29;8.30;99.90
37356;DHT22;48747;50.250;18.848;2023-02-18T16:26:59;8.30;99.90
37356;DHT22;48747;50.250;18.848;2023-02-18T16:31:12;8.30;99.90
37356;DHT22;48747;50.250;18.848;2023-02-18T16:33:16;8.40;99.90
37356;DHT22;48747;50.250;18.848;2023-02-18T16:35:31;8.40;99.90
37356;DHT22;48747;50.250;18.848;2023-02-18T16:37:32;8.30;99.90
37356;DHT22;48747;50.250;18.848;2023-02-18T16:39:45;8.40;99.90
37356;DHT22;48747;50.250;18.848;2023-02-18T16:41:51;8.40;99.90
37356;DHT22;48747;50.250;18.848;2023-02-18T16:44:03;8.40;99.90
37356;DHT22;48747;50.250;18.848;2023-02-18T16:49:02;8.40;99.90
37356;DHT22;48747;50.250;18.848;2023-02-18T16:53:29;8.40;99.90
37356;DHT22;48747;50.250;18.848;2023-02-18T16:55:38;8.40;99.90
37356;DHT22;48747;50.250;18.848;2023-02-18T16:57:39;8.50;99.90
37356;DHT22;48747;50.250;18.848;2023-02-18T16:59:43;8.50;99.90
37356;DHT22;48747;50.250;18.848;2023-02-18T17:01:54;8.50;99.90
37356;DHT22;48747;50.250;18.848;2023-02-18T17:03:57;8.50;99.90
37356;DHT22;48747;50.250;18.848;2023-02-18T17:06:02;8.50;99.90
37356;DHT22;48747;50.250;18.848;2023-02-18T17:10:20;8.50;99.90
37356;DHT22;48747;50.250;18.848;2023-02-18T17:12:25;8.50;99.90
37356;DHT22;48747;50.250;18.848;2023-02-18T17:14:30;8.50;99.90
37356;DHT22;48747;50.250;18.848;2023-02-18T17:16:34;8.50;99.90
37356;DHT22;48747;50.250;18.848;2023-02-18T17:18:37;8.50;99.90
37356;DHT22;48747;50.250;18.848;2023-02-18T17:20:43;8.50;99.90
37356;DHT22;48747;50.250;18.848;2023-02-18T17:22:47;8.50;99.90
37356;DHT22;48747;50.250;18.848;2023-02-18T17:24:52;8.50;99.90
37356;DHT22;48747;50.250;18.848;2023-02-18T17:26:55;8.50;99.90
37356;DHT22;48747;50.250;18.848;2023-02-18T17:29:04;8.50;99.90
37356;DHT22;48747;50.250;18.848;2023-02-18T17:31:23;8.50;99.90
37356;DHT22;48747;50.250;18.848;2023-02-18T17:33:22;8.50;99.90
37356;DHT22;48747;50.250;18.848;2023-02-18T17:35:33;8.50;99.90
37356;DHT22;48747;50.250;18.848;2023-02-18T17:37:43;8.60;99.90
37356;DHT22;48747;50.250;18.848;2023-02-18T17:41:52;8.60;99.90
37356;DHT22;48747;50.250;18.848;2023-02-18T17:44:01;8.70;99.90